sensor_id;sensor_type;location;lat;lon;timestamp;P1;durP1;ratioP1;P2;durP2;ratioP2
13408;SDS011;6775;49.574;11.170;2023-07-28T00:00:09;7.00;;;4.57;;
13408;SDS011;6775;49.574;11.170;2023-07-28T00:02:38;6.70;;;5.03;;
13408;SDS011;6775;49.574;11.170;2023-07-28T00:05:06;5.33;;;4.00;;
13408;SDS011;6775;49.574;11.170;2023-07-28T00:07:35;4.23;;;3.83;;
13408;SDS011;6775;49.574;11.170;2023-07-28T00:10:03;4.03;;;3.63;;
13408;SDS011;6775;49.574;11.170;2023-07-28T00:12:32;5.07;;;3.80;;
13408;SDS011;6775;49.574;11.170;2023-07-28T00:15:02;4.47;;;3.50;;
13408;SDS011;6775;49.574;11.170;2023-07-28T00:17:31;3.87;;;3.47;;
13408;SDS011;6775;49.574;11.170;2023-07-28T00:19:59;4.00;;;3.40;;
13408;SDS011;6775;49.574;11.170;2023-07-28T00:22:27;3.67;;;3.30;;
13408;SDS011;6775;49.574;11.170;2023-07-28T00:24:55;4.07;;;3.67;;
13408;SDS011;6775;49.574;11.170;2023-07-28T00:27:23;4.23;;;3.83;;
13408;SDS011;6775;49.574;11.170;2023-07-28T00:29:51;4.03;;;3.47;;
13408;SDS011;6775;49.574;11.170;2023-07-28T00:32:20;4.23;;;3.63;;
13408;SDS011;6775;49.574;11.170;2023-07-28T00:34:48;4.47;;;3.57;;
13408;SDS011;6775;49.574;11.170;2023-07-28T00:37:16;4.40;;;3.77;;
13408;SDS011;6775;49.574;11.170;2023-07-28T00:39:44;7.17;;;3.67;;
13408;SDS011;6775;49.574;11.170;2023-07-28T00:42:13;4.07;;;3.30;;
13408;SDS011;6775;49.574;11.170;2023-07-28T00:44:41;4.03;;;3.37;;
13408;SDS011;6775;49.574;11.170;2023-07-28T00:47:09;5.00;;;3.83;;
13408;SDS011;6775;49.574;11.170;2023-07-28T00:49:38;4.70;;;3.40;;
13408;SDS011;6775;49.574;11.170;2023-07-28T00:52:08;4.23;;;3.83;;
13408;SDS011;6775;49.574;11.170;2023-07-28T00:54:37;4.93;;;4.13;;
13408;SDS011;6775;49.574;11.170;2023-07-28T00:57:05;4.27;;;3.47;;
13408;SDS011;6775;49.574;11.170;2023-07-28T00:59:33;4.13;;;3.67;;
13408;SDS011;6775;49.574;11.170;2023-07-28T01:02:01;4.67;;;3.73;;
13408;SDS011;6775;49.574;11.170;2023-07-28T01:04:30;4.23;;;3.40;;
13408;SDS011;6775;49.574;11.170;2023-07-28T01:07:01;7.10;;;3.90;;
13408;SDS011;6775;49.574;11.170;2023-07-28T01:09:43;3.67;;;3.37;;
13408;SDS011;6775;49.574;11.170;2023-07-28T01:12:23;3.27;;;2.77;;
13408;SDS011;6775;49.574;11.170;2023-07-28T01:14:51;3.70;;;3.27;;
13408;SDS011;6775;49.574;11.170;2023-07-28T01:17:19;4.73;;;3.40;;
13408;SDS011;6775;49.574;11.170;2023-07-28T01:19:50;3.53;;;3.20;;
13408;SDS011;6775;49.574;11.170;2023-07-28T01:22:25;3.00;;;2.80;;
13408;SDS011;6775;49.574;11.170;2023-07-28T01:25:18;3.40;;;3.10;;
13408;SDS011;6775;49.574;11.170;2023-07-28T01:28:01;4.23;;;3.00;;
13408;SDS011;6775;49.574;11.170;2023-07-28T01:30:30;3.17;;;2.70;;
13408;SDS011;6775;49.574;11.170;2023-07-28T01:32:58;4.20;;;3.00;;
13408;SDS011;6775;49.574;11.170;2023-07-28T01:35:27;3.20;;;2.90;;
13408;SDS011;6775;49.574;11.170;2023-07-28T01:37:55;3.57;;;3.27;;
13408;SDS011;6775;49.574;11.170;2023-07-28T01:40:23;3.50;;;3.03;;
13408;SDS011;6775;49.574;11.170;2023-07-28T01:42:51;4.10;;;3.17;;
13408;SDS011;6775;49.574;11.170;2023-07-28T01:45:20;3.70;;;2.90;;
13408;SDS011;6775;49.574;11.170;2023-07-28T01:47:48;3.90;;;3.50;;
13408;SDS011;6775;49.574;11.170;2023-07-28T01:50:16;5.17;;;3.30;;
13408;SDS011;6775;49.574;11.170;2023-07-28T01:52:44;3.90;;;3.50;;
13408;SDS011;6775;49.574;11.170;2023-07-28T01:55:12;3.80;;;3.13;;
13408;SDS011;6775;49.574;11.170;2023-07-28T01:57:49;4.20;;;3.67;;
13408;SDS011;6775;49.574;11.170;2023-07-28T02:00:23;4.20;;;3.67;;
13408;SDS011;6775;49.574;11.170;2023-07-28T02:02:52;6.03;;;3.87;;
13408;SDS011;6775;49.574;11.170;2023-07-28T02:05:21;5.67;;;4.03;;
13408;SDS011;6775;49.574;11.170;2023-07-28T02:07:49;4.03;;;3.50;;
13408;SDS011;6775;49.574;11.170;2023-07-28T02:10:17;5.67;;;3.97;;
13408;SDS011;6775;49.574;11.170;2023-07-28T02:12:46;3.97;;;3.57;;
13408;SDS011;6775;49.574;11.170;2023-07-28T02:15:14;4.30;;;3.83;;
13408;SDS011;6775;49.574;11.170;2023-07-28T02:17:43;4.43;;;4.00;;
13408;SDS011;6775;49.574;11.170;2023-07-28T02:20:11;4.53;;;4.07;;
13408;SDS011;6775;49.574;11.170;2023-07-28T02:22:41;5.50;;;4.10;;
13408;SDS011;6775;49.574;11.170;2023-07-28T02:25:10;6.27;;;4.30;;
13408;SDS011;6775;49.574;11.170;2023-07-28T02:27:38;5.27;;;3.57;;
13408;SDS011;6775;49.574;11.170;2023-07-28T02:30:07;3.73;;;3.43;;
13408;SDS011;6775;49.574;11.170;2023-07-28T02:32:36;4.97;;;3.53;;
13408;SDS011;6775;49.574;11.170;2023-07-28T02:35:06;4.20;;;3.37;;
13408;SDS011;6775;49.574;11.170;2023-07-28T02:37:36;3.23;;;2.93;;
13408;SDS011;6775;49.574;11.170;2023-07-28T02:40:05;3.80;;;3.50;;
13408;SDS011;6775;49.574;11.170;2023-07-28T02:42:34;4.97;;;3.10;;
13408;SDS011;6775;49.574;11.170;2023-07-28T02:45:02;3.03;;;2.77;;
13408;SDS011;6775;49.574;11.170;2023-07-28T02:47:31;3.40;;;3.10;;
13408;SDS011;6775;49.574;11.170;2023-07-28T02:49:59;3.23;;;2.50;;
13408;SDS011;6775;49.574;11.170;2023-07-28T02:52:28;3.73;;;2.60;;
13408;SDS011;6775;49.574;11.170;2023-07-28T02:54:56;2.97;;;2.13;;
13408;SDS011;6775;49.574;11.170;2023-07-28T02:57:24;2.53;;;2.23;;
13408;SDS011;6775;49.574;11.170;2023-07-28T02:59:52;2.80;;;2.07;;
13408;SDS011;6775;49.574;11.170;2023-07-28T03:02:20;2.13;;;1.93;;
13408;SDS011;6775;49.574;11.170;2023-07-28T03:04:49;2.30;;;2.00;;
13408;SDS011;6775;49.574;11.170;2023-07-28T03:07:17;1.97;;;1.80;;
13408;SDS011;6775;49.574;11.170;2023-07-28T03:09:46;3.20;;;2.07;;
13408;SDS011;6775;49.574;11.170;2023-07-28T03:12:14;3.07;;;1.97;;
13408;SDS011;6775;49.574;11.170;2023-07-28T03:14:42;2.70;;;1.97;;
13408;SDS011;6775;49.574;11.170;2023-07-28T03:17:10;2.67;;;2.20;;
13408;SDS011;6775;49.574;11.170;2023-07-28T03:19:38;3.47;;;2.77;;
13408;SDS011;6775;49.574;11.170;2023-07-28T03:22:06;3.83;;;2.70;;
13408;SDS011;6775;49.574;11.170;2023-07-28T03:24:34;6.17;;;3.27;;
13408;SDS011;6775;49.574;11.170;2023-07-28T03:27:04;5.63;;;3.50;;
13408;SDS011;6775;49.574;11.170;2023-07-28T03:29:32;3.23;;;2.90;;
13408;SDS011;6775;49.574;11.170;2023-07-28T03:32:00;4.07;;;3.30;;
13408;SDS011;6775;49.574;11.170;2023-07-28T03:34:28;3.87;;;3.27;;
13408;SDS011;6775;49.574;11.170;2023-07-28T03:36:56;4.43;;;3.73;;
13408;SDS011;6775;49.574;11.170;2023-07-28T03:39:24;4.53;;;3.87;;
13408;SDS011;6775;49.574;11.170;2023-07-28T03:41:52;4.13;;;3.50;;
13408;SDS011;6775;49.574;11.170;2023-07-28T03:44:22;3.70;;;3.13;;
13408;SDS011;6775;49.574;11.170;2023-07-28T03:46:50;3.10;;;2.80;;
13408;SDS011;6775;49.574;11.170;2023-07-28T03:49:18;2.63;;;2.43;;
13408;SDS011;6775;49.574;11.170;2023-07-28T03:51:46;3.07;;;2.77;;
13408;SDS011;6775;49.574;11.170;2023-07-28T03:54:14;3.23;;;2.73;;
13408;SDS011;6775;49.574;11.170;2023-07-28T03:56:42;2.60;;;2.40;;
13408;SDS011;6775;49.574;11.170;2023-07-28T03:59:10;3.00;;;2.70;;
13408;SDS011;6775;49.574;11.170;2023-07-28T04:01:40;5.47;;;3.23;;
13408;SDS011;6775;49.574;11.170;2023-07-28T04:04:08;3.90;;;3.17;;
13408;SDS011;6775;49.574;11.170;2023-07-28T04:06:39;4.23;;;3.13;;
13408;SDS011;6775;49.574;11.170;2023-07-28T04:09:09;3.13;;;2.90;;
13408;SDS011;6775;49.574;11.170;2023-07-28T04:11:41;3.87;;;3.53;;
13408;SDS011;6775;49.574;11.170;2023-07-28T04:14:09;3.30;;;2.60;;
13408;SDS011;6775;49.574;11.170;2023-07-28T04:16:37;2.17;;;1.97;;
13408;SDS011;6775;49.574;11.170;2023-07-28T04:19:07;2.90;;;2.40;;
13408;SDS011;6775;49.574;11.170;2023-07-28T04:21:35;2.30;;;2.10;;
13408;SDS011;6775;49.574;11.170;2023-07-28T04:24:07;2.33;;;2.13;;
13408;SDS011;6775;49.574;11.170;2023-07-28T04:26:36;3.03;;;2.43;;
13408;SDS011;6775;49.574;11.170;2023-07-28T04:29:05;3.33;;;2.40;;
13408;SDS011;6775;49.574;11.170;2023-07-28T04:31:33;3.17;;;2.87;;
13408;SDS011;6775;49.574;11.170;2023-07-28T04:34:02;3.23;;;2.93;;
13408;SDS011;6775;49.574;11.170;2023-07-28T04:36:30;3.53;;;3.23;;
13408;SDS011;6775;49.574;11.170;2023-07-28T04:38:59;5.90;;;4.17;;
13408;SDS011;6775;49.574;11.170;2023-07-28T04:41:27;4.83;;;3.57;;
13408;SDS011;6775;49.574;11.170;2023-07-28T04:43:55;4.03;;;3.37;;
13408;SDS011;6775;49.574;11.170;2023-07-28T04:46:23;3.93;;;3.53;;
13408;SDS011;6775;49.574;11.170;2023-07-28T04:48:53;4.00;;;3.60;;
13408;SDS011;6775;49.574;11.170;2023-07-28T04:51:23;5.00;;;4.50;;
13408;SDS011;6775;49.574;11.170;2023-07-28T04:53:51;4.13;;;3.73;;
13408;SDS011;6775;49.574;11.170;2023-07-28T04:56:19;6.50;;;4.30;;
13408;SDS011;6775;49.574;11.170;2023-07-28T04:58:47;5.03;;;4.47;;
13408;SDS011;6775;49.574;11.170;2023-07-28T05:01:15;5.63;;;4.43;;
13408;SDS011;6775;49.574;11.170;2023-07-28T05:03:43;4.67;;;4.23;;
13408;SDS011;6775;49.574;11.170;2023-07-28T05:06:11;5.37;;;4.87;;
13408;SDS011;6775;49.574;11.170;2023-07-28T05:08:42;5.23;;;4.63;;
13408;SDS011;6775;49.574;11.170;2023-07-28T05:11:10;6.07;;;4.63;;
13408;SDS011;6775;49.574;11.170;2023-07-28T05:13:38;4.90;;;4.17;;
13408;SDS011;6775;49.574;11.170;2023-07-28T05:16:06;5.67;;;4.63;;
13408;SDS011;6775;49.574;11.170;2023-07-28T05:18:34;4.63;;;4.23;;
13408;SDS011;6775;49.574;11.170;2023-07-28T05:21:03;5.50;;;4.37;;
13408;SDS011;6775;49.574;11.170;2023-07-28T05:23:31;4.30;;;3.53;;
13408;SDS011;6775;49.574;11.170;2023-07-28T05:26:00;5.73;;;4.97;;
13408;SDS011;6775;49.574;11.170;2023-07-28T05:28:28;5.30;;;4.80;;
13408;SDS011;6775;49.574;11.170;2023-07-28T05:31:02;6.53;;;5.27;;
13408;SDS011;6775;49.574;11.170;2023-07-28T05:33:31;5.93;;;5.33;;
13408;SDS011;6775;49.574;11.170;2023-07-28T05:36:00;6.43;;;5.73;;
13408;SDS011;6775;49.574;11.170;2023-07-28T05:38:31;7.30;;;6.07;;
13408;SDS011;6775;49.574;11.170;2023-07-28T05:41:01;6.33;;;5.63;;
13408;SDS011;6775;49.574;11.170;2023-07-28T05:43:31;7.17;;;5.43;;
13408;SDS011;6775;49.574;11.170;2023-07-28T05:46:00;7.10;;;6.33;;
13408;SDS011;6775;49.574;11.170;2023-07-28T05:48:28;6.20;;;5.60;;
13408;SDS011;6775;49.574;11.170;2023-07-28T05:50:56;6.77;;;5.60;;
13408;SDS011;6775;49.574;11.170;2023-07-28T05:53:24;7.07;;;6.07;;
13408;SDS011;6775;49.574;11.170;2023-07-28T05:55:53;6.53;;;5.70;;
13408;SDS011;6775;49.574;11.170;2023-07-28T05:58:22;9.97;;;6.77;;
13408;SDS011;6775;49.574;11.170;2023-07-28T06:00:50;6.97;;;6.27;;
13408;SDS011;6775;49.574;11.170;2023-07-28T06:03:18;6.10;;;5.20;;
13408;SDS011;6775;49.574;11.170;2023-07-28T06:05:46;6.80;;;5.27;;
13408;SDS011;6775;49.574;11.170;2023-07-28T06:08:14;5.17;;;4.57;;
13408;SDS011;6775;49.574;11.170;2023-07-28T06:10:42;8.23;;;6.60;;
13408;SDS011;6775;49.574;11.170;2023-07-28T06:13:10;6.27;;;5.67;;
13408;SDS011;6775;49.574;11.170;2023-07-28T06:15:39;6.53;;;5.80;;
13408;SDS011;6775;49.574;11.170;2023-07-28T06:18:08;6.70;;;5.10;;
13408;SDS011;6775;49.574;11.170;2023-07-28T06:20:36;5.97;;;5.37;;
13408;SDS011;6775;49.574;11.170;2023-07-28T06:23:04;6.73;;;5.47;;
13408;SDS011;6775;49.574;11.170;2023-07-28T06:25:32;8.53;;;5.23;;
13408;SDS011;6775;49.574;11.170;2023-07-28T06:28:00;6.33;;;5.63;;
13408;SDS011;6775;49.574;11.170;2023-07-28T06:30:29;6.57;;;5.17;;
13408;SDS011;6775;49.574;11.170;2023-07-28T06:32:58;5.70;;;5.10;;
13408;SDS011;6775;49.574;11.170;2023-07-28T06:35:27;7.57;;;5.83;;
13408;SDS011;6775;49.574;11.170;2023-07-28T06:37:55;8.27;;;6.30;;
13408;SDS011;6775;49.574;11.170;2023-07-28T06:40:23;6.03;;;5.27;;
13408;SDS011;6775;49.574;11.170;2023-07-28T06:42:51;7.23;;;5.70;;
13408;SDS011;6775;49.574;11.170;2023-07-28T06:45:19;6.47;;;5.53;;
13408;SDS011;6775;49.574;11.170;2023-07-28T06:47:48;6.77;;;5.63;;
13408;SDS011;6775;49.574;11.170;2023-07-28T06:50:19;7.07;;;6.37;;
13408;SDS011;6775;49.574;11.170;2023-07-28T06:52:47;7.07;;;5.40;;
13408;SDS011;6775;49.574;11.170;2023-07-28T06:55:16;5.70;;;5.07;;
13408;SDS011;6775;49.574;11.170;2023-07-28T06:57:44;5.33;;;4.83;;
13408;SDS011;6775;49.574;11.170;2023-07-28T07:00:13;4.87;;;4.27;;
13408;SDS011;6775;49.574;11.170;2023-07-28T07:02:42;7.23;;;4.97;;
13408;SDS011;6775;49.574;11.170;2023-07-28T07:05:10;5.73;;;5.10;;
13408;SDS011;6775;49.574;11.170;2023-07-28T07:07:40;5.90;;;5.30;;
13408;SDS011;6775;49.574;11.170;2023-07-28T07:10:08;5.53;;;5.03;;
13408;SDS011;6775;49.574;11.170;2023-07-28T07:12:36;5.23;;;4.80;;
13408;SDS011;6775;49.574;11.170;2023-07-28T07:15:05;7.67;;;6.23;;
13408;SDS011;6775;49.574;11.170;2023-07-28T07:17:34;5.83;;;5.23;;
13408;SDS011;6775;49.574;11.170;2023-07-28T07:20:02;9.03;;;6.23;;
13408;SDS011;6775;49.574;11.170;2023-07-28T07:22:31;6.63;;;5.83;;
13408;SDS011;6775;49.574;11.170;2023-07-28T07:25:01;7.17;;;5.80;;
13408;SDS011;6775;49.574;11.170;2023-07-28T07:27:30;4.90;;;4.40;;
13408;SDS011;6775;49.574;11.170;2023-07-28T07:29:58;5.07;;;4.17;;
13408;SDS011;6775;49.574;11.170;2023-07-28T07:32:26;5.17;;;4.67;;
13408;SDS011;6775;49.574;11.170;2023-07-28T07:34:54;4.20;;;3.80;;
13408;SDS011;6775;49.574;11.170;2023-07-28T07:37:26;5.50;;;5.00;;
13408;SDS011;6775;49.574;11.170;2023-07-28T07:39:54;4.90;;;4.40;;
13408;SDS011;6775;49.574;11.170;2023-07-28T07:42:23;4.50;;;3.47;;
13408;SDS011;6775;49.574;11.170;2023-07-28T07:44:51;3.50;;;3.20;;
13408;SDS011;6775;49.574;11.170;2023-07-28T07:47:19;3.63;;;3.30;;
13408;SDS011;6775;49.574;11.170;2023-07-28T07:49:47;4.30;;;3.13;;
13408;SDS011;6775;49.574;11.170;2023-07-28T07:52:15;3.30;;;3.00;;
13408;SDS011;6775;49.574;11.170;2023-07-28T07:54:43;3.60;;;3.30;;
13408;SDS011;6775;49.574;11.170;2023-07-28T07:57:11;4.07;;;3.67;;
13408;SDS011;6775;49.574;11.170;2023-07-28T07:59:41;5.90;;;3.27;;
13408;SDS011;6775;49.574;11.170;2023-07-28T08:02:09;3.53;;;3.00;;
13408;SDS011;6775;49.574;11.170;2023-07-28T08:04:37;3.90;;;3.30;;
13408;SDS011;6775;49.574;11.170;2023-07-28T08:07:05;2.97;;;2.77;;
13408;SDS011;6775;49.574;11.170;2023-07-28T08:09:33;4.13;;;2.80;;
13408;SDS011;6775;49.574;11.170;2023-07-28T08:12:01;3.40;;;3.10;;
13408;SDS011;6775;49.574;11.170;2023-07-28T08:14:30;3.30;;;2.83;;
13408;SDS011;6775;49.574;11.170;2023-07-28T08:16:59;3.53;;;3.13;;
13408;SDS011;6775;49.574;11.170;2023-07-28T08:19:27;2.90;;;2.60;;
13408;SDS011;6775;49.574;11.170;2023-07-28T08:21:55;3.27;;;2.97;;
13408;SDS011;6775;49.574;11.170;2023-07-28T08:24:23;3.20;;;2.90;;
13408;SDS011;6775;49.574;11.170;2023-07-28T08:26:51;3.70;;;2.47;;
13408;SDS011;6775;49.574;11.170;2023-07-28T08:29:19;2.40;;;2.13;;
13408;SDS011;6775;49.574;11.170;2023-07-28T08:31:47;3.77;;;3.10;;
13408;SDS011;6775;49.574;11.170;2023-07-28T08:34:17;4.17;;;3.10;;
13408;SDS011;6775;49.574;11.170;2023-07-28T08:36:45;2.47;;;2.27;;
13408;SDS011;6775;49.574;11.170;2023-07-28T08:39:13;3.77;;;3.27;;
13408;SDS011;6775;49.574;11.170;2023-07-28T08:41:41;3.00;;;2.70;;
13408;SDS011;6775;49.574;11.170;2023-07-28T08:44:09;6.77;;;3.40;;
13408;SDS011;6775;49.574;11.170;2023-07-28T08:46:37;4.50;;;2.63;;
13408;SDS011;6775;49.574;11.170;2023-07-28T08:49:05;2.97;;;2.77;;
13408;SDS011;6775;49.574;11.170;2023-07-28T08:51:35;3.23;;;2.93;;
13408;SDS011;6775;49.574;11.170;2023-07-28T08:54:09;3.87;;;2.60;;
13408;SDS011;6775;49.574;11.170;2023-07-28T08:56:37;2.83;;;2.50;;
13408;SDS011;6775;49.574;11.170;2023-07-28T08:59:05;2.77;;;2.43;;
13408;SDS011;6775;49.574;11.170;2023-07-28T09:01:33;2.70;;;2.47;;
13408;SDS011;6775;49.574;11.170;2023-07-28T09:04:09;2.67;;;2.47;;
13408;SDS011;6775;49.574;11.170;2023-07-28T09:06:39;3.03;;;2.40;;
13408;SDS011;6775;49.574;11.170;2023-07-28T09:09:11;2.43;;;2.23;;
13408;SDS011;6775;49.574;11.170;2023-07-28T09:11:43;2.67;;;2.10;;
13408;SDS011;6775;49.574;11.170;2023-07-28T09:14:12;5.50;;;2.33;;
13408;SDS011;6775;49.574;11.170;2023-07-28T09:16:42;2.60;;;2.23;;
13408;SDS011;6775;49.574;11.170;2023-07-28T09:19:10;2.43;;;2.20;;
13408;SDS011;6775;49.574;11.170;2023-07-28T09:21:42;1.70;;;1.60;;
13408;SDS011;6775;49.574;11.170;2023-07-28T09:24:12;1.67;;;1.50;;
13408;SDS011;6775;49.574;11.170;2023-07-28T09:26:42;1.70;;;1.57;;
13408;SDS011;6775;49.574;11.170;2023-07-28T09:29:14;1.90;;;1.67;;
13408;SDS011;6775;49.574;11.170;2023-07-28T09:31:45;1.53;;;1.30;;
13408;SDS011;6775;49.574;11.170;2023-07-28T09:34:23;2.20;;;1.70;;
13408;SDS011;6775;49.574;11.170;2023-07-28T09:36:54;1.40;;;1.30;;
13408;SDS011;6775;49.574;11.170;2023-07-28T09:39:24;1.83;;;1.60;;
13408;SDS011;6775;49.574;11.170;2023-07-28T09:41:53;1.90;;;1.50;;
13408;SDS011;6775;49.574;11.170;2023-07-28T09:44:24;1.57;;;1.30;;
13408;SDS011;6775;49.574;11.170;2023-07-28T09:46:53;1.37;;;1.23;;
13408;SDS011;6775;49.574;11.170;2023-07-28T09:49:27;1.30;;;1.20;;
13408;SDS011;6775;49.574;11.170;2023-07-28T09:52:03;1.20;;;1.10;;
13408;SDS011;6775;49.574;11.170;2023-07-28T09:54:37;1.20;;;1.10;;
13408;SDS011;6775;49.574;11.170;2023-07-28T09:57:08;1.50;;;1.37;;
13408;SDS011;6775;49.574;11.170;2023-07-28T09:59:41;1.33;;;1.13;;
13408;SDS011;6775;49.574;11.170;2023-07-28T10:02:09;1.30;;;1.20;;
13408;SDS011;6775;49.574;11.170;2023-07-28T10:04:38;1.20;;;1.10;;
13408;SDS011;6775;49.574;11.170;2023-07-28T10:07:07;1.30;;;1.20;;
13408;SDS011;6775;49.574;11.170;2023-07-28T10:09:36;1.20;;;1.10;;
13408;SDS011;6775;49.574;11.170;2023-07-28T10:12:06;1.30;;;1.13;;
13408;SDS011;6775;49.574;11.170;2023-07-28T10:14:45;1.20;;;1.10;;
13408;SDS011;6775;49.574;11.170;2023-07-28T10:17:15;1.20;;;1.10;;
13408;SDS011;6775;49.574;11.170;2023-07-28T10:19:43;1.47;;;1.10;;
13408;SDS011;6775;49.574;11.170;2023-07-28T10:22:13;0.90;;;0.90;;
13408;SDS011;6775;49.574;11.170;2023-07-28T10:24:50;0.90;;;0.90;;
13408;SDS011;6775;49.574;11.170;2023-07-28T10:27:29;0.90;;;0.90;;
13408;SDS011;6775;49.574;11.170;2023-07-28T10:30:05;0.93;;;0.83;;
13408;SDS011;6775;49.574;11.170;2023-07-28T10:32:39;1.40;;;0.80;;
13408;SDS011;6775;49.574;11.170;2023-07-28T10:35:09;2.53;;;1.20;;
13408;SDS011;6775;49.574;11.170;2023-07-28T10:37:52;1.00;;;0.90;;
13408;SDS011;6775;49.574;11.170;2023-07-28T10:40:23;1.00;;;0.90;;
13408;SDS011;6775;49.574;11.170;2023-07-28T10:42:56;1.00;;;1.00;;
13408;SDS011;6775;49.574;11.170;2023-07-28T10:45:26;1.57;;;1.10;;
13408;SDS011;6775;49.574;11.170;2023-07-28T10:47:57;1.57;;;1.03;;
13408;SDS011;6775;49.574;11.170;2023-07-28T10:50:27;1.03;;;0.90;;
13408;SDS011;6775;49.574;11.170;2023-07-28T10:52:58;1.20;;;1.10;;
13408;SDS011;6775;49.574;11.170;2023-07-28T10:55:26;0.80;;;0.80;;
13408;SDS011;6775;49.574;11.170;2023-07-28T10:57:55;1.37;;;1.10;;
13408;SDS011;6775;49.574;11.170;2023-07-28T11:00:24;1.20;;;1.10;;
13408;SDS011;6775;49.574;11.170;2023-07-28T11:02:52;1.00;;;1.00;;
13408;SDS011;6775;49.574;11.170;2023-07-28T11:05:22;1.10;;;1.00;;
13408;SDS011;6775;49.574;11.170;2023-07-28T11:07:52;1.13;;;1.03;;
13408;SDS011;6775;49.574;11.170;2023-07-28T11:10:24;1.10;;;1.00;;
13408;SDS011;6775;49.574;11.170;2023-07-28T11:12:57;1.03;;;1.03;;
13408;SDS011;6775;49.574;11.170;2023-07-28T11:15:41;1.10;;;0.90;;
13408;SDS011;6775;49.574;11.170;2023-07-28T11:18:09;0.80;;;0.80;;
13408;SDS011;6775;49.574;11.170;2023-07-28T11:20:37;1.03;;;1.00;;
13408;SDS011;6775;49.574;11.170;2023-07-28T11:23:05;1.00;;;1.00;;
13408;SDS011;6775;49.574;11.170;2023-07-28T11:25:35;0.90;;;0.90;;
13408;SDS011;6775;49.574;11.170;2023-07-28T11:28:05;1.40;;;1.30;;
13408;SDS011;6775;49.574;11.170;2023-07-28T11:30:33;0.80;;;0.80;;
13408;SDS011;6775;49.574;11.170;2023-07-28T11:33:06;1.53;;;1.40;;
13408;SDS011;6775;49.574;11.170;2023-07-28T11:35:38;1.00;;;1.00;;
13408;SDS011;6775;49.574;11.170;2023-07-28T11:38:07;1.30;;;1.20;;
13408;SDS011;6775;49.574;11.170;2023-07-28T11:40:38;1.90;;;0.90;;
13408;SDS011;6775;49.574;11.170;2023-07-28T11:43:07;1.23;;;1.10;;
13408;SDS011;6775;49.574;11.170;2023-07-28T11:45:35;1.13;;;1.03;;
13408;SDS011;6775;49.574;11.170;2023-07-28T11:48:04;1.17;;;1.13;;
13408;SDS011;6775;49.574;11.170;2023-07-28T11:50:34;0.80;;;0.80;;
13408;SDS011;6775;49.574;11.170;2023-07-28T11:53:05;1.10;;;1.00;;
13408;SDS011;6775;49.574;11.170;2023-07-28T11:55:35;1.00;;;1.00;;
13408;SDS011;6775;49.574;11.170;2023-07-28T11:58:05;1.43;;;1.33;;
13408;SDS011;6775;49.574;11.170;2023-07-28T12:00:34;1.30;;;1.20;;
13408;SDS011;6775;49.574;11.170;2023-07-28T12:03:06;1.57;;;1.10;;
13408;SDS011;6775;49.574;11.170;2023-07-28T12:05:39;1.27;;;1.17;;
13408;SDS011;6775;49.574;11.170;2023-07-28T12:08:39;1.23;;;1.20;;
13408;SDS011;6775;49.574;11.170;2023-07-28T12:11:13;1.30;;;1.20;;
13408;SDS011;6775;49.574;11.170;2023-07-28T12:14:03;1.47;;;1.33;;
13408;SDS011;6775;49.574;11.170;2023-07-28T12:16:38;1.43;;;0.93;;
13408;SDS011;6775;49.574;11.170;2023-07-28T12:19:10;0.90;;;0.90;;
13408;SDS011;6775;49.574;11.170;2023-07-28T12:21:39;0.90;;;0.90;;
13408;SDS011;6775;49.574;11.170;2023-07-28T12:24:07;0.90;;;0.83;;
13408;SDS011;6775;49.574;11.170;2023-07-28T12:26:36;1.10;;;1.10;;
13408;SDS011;6775;49.574;11.170;2023-07-28T12:29:06;0.83;;;0.83;;
13408;SDS011;6775;49.574;11.170;2023-07-28T12:31:37;0.80;;;0.80;;
13408;SDS011;6775;49.574;11.170;2023-07-28T12:34:08;1.00;;;1.00;;
13408;SDS011;6775;49.574;11.170;2023-07-28T12:36:50;1.20;;;1.10;;
13408;SDS011;6775;49.574;11.170;2023-07-28T12:39:20;1.20;;;1.10;;
13408;SDS011;6775;49.574;11.170;2023-07-28T12:41:53;1.43;;;1.00;;
13408;SDS011;6775;49.574;11.170;2023-07-28T12:44:24;0.70;;;0.70;;
13408;SDS011;6775;49.574;11.170;2023-07-28T12:46:55;0.80;;;0.80;;
13408;SDS011;6775;49.574;11.170;2023-07-28T12:49:23;0.70;;;0.70;;
13408;SDS011;6775;49.574;11.170;2023-07-28T12:51:51;0.87;;;0.87;;
13408;SDS011;6775;49.574;11.170;2023-07-28T12:54:22;0.90;;;0.90;;
13408;SDS011;6775;49.574;11.170;2023-07-28T12:56:51;0.80;;;0.80;;
13408;SDS011;6775;49.574;11.170;2023-07-28T12:59:23;0.67;;;0.67;;
13408;SDS011;6775;49.574;11.170;2023-07-28T13:01:51;0.73;;;0.70;;
13408;SDS011;6775;49.574;11.170;2023-07-28T13:04:20;0.90;;;0.90;;
13408;SDS011;6775;49.574;11.170;2023-07-28T13:06:48;0.90;;;0.80;;
13408;SDS011;6775;49.574;11.170;2023-07-28T13:09:16;0.67;;;0.67;;
13408;SDS011;6775;49.574;11.170;2023-07-28T13:11:47;0.70;;;0.70;;
13408;SDS011;6775;49.574;11.170;2023-07-28T13:14:19;0.70;;;0.70;;
13408;SDS011;6775;49.574;11.170;2023-07-28T13:16:47;0.70;;;0.70;;
13408;SDS011;6775;49.574;11.170;2023-07-28T13:19:15;0.63;;;0.63;;
13408;SDS011;6775;49.574;11.170;2023-07-28T13:21:44;0.67;;;0.67;;
13408;SDS011;6775;49.574;11.170;2023-07-28T13:24:12;1.33;;;0.70;;
13408;SDS011;6775;49.574;11.170;2023-07-28T13:26:40;0.80;;;0.80;;
13408;SDS011;6775;49.574;11.170;2023-07-28T13:29:08;1.93;;;1.00;;
13408;SDS011;6775;49.574;11.170;2023-07-28T13:31:37;3.80;;;1.13;;
13408;SDS011;6775;49.574;11.170;2023-07-28T13:34:05;1.07;;;1.00;;
13408;SDS011;6775;49.574;11.170;2023-07-28T13:36:33;1.10;;;0.93;;
13408;SDS011;6775;49.574;11.170;2023-07-28T13:39:02;0.90;;;0.90;;
13408;SDS011;6775;49.574;11.170;2023-07-28T13:41:30;1.03;;;0.90;;
13408;SDS011;6775;49.574;11.170;2023-07-28T13:43:59;1.00;;;1.00;;
13408;SDS011;6775;49.574;11.170;2023-07-28T13:46:28;0.70;;;0.70;;
13408;SDS011;6775;49.574;11.170;2023-07-28T13:48:57;0.80;;;0.70;;
13408;SDS011;6775;49.574;11.170;2023-07-28T13:51:33;2.73;;;0.70;;
13408;SDS011;6775;49.574;11.170;2023-07-28T13:54:04;0.97;;;0.80;;
13408;SDS011;6775;49.574;11.170;2023-07-28T13:56:35;0.80;;;0.80;;
13408;SDS011;6775;49.574;11.170;2023-07-28T13:59:03;1.00;;;0.90;;
13408;SDS011;6775;49.574;11.170;2023-07-28T14:01:32;0.80;;;0.80;;
13408;SDS011;6775;49.574;11.170;2023-07-28T14:04:02;1.90;;;0.70;;
13408;SDS011;6775;49.574;11.170;2023-07-28T14:06:30;0.80;;;0.80;;
13408;SDS011;6775;49.574;11.170;2023-07-28T14:08:59;1.63;;;0.97;;
13408;SDS011;6775;49.574;11.170;2023-07-28T14:11:27;1.00;;;0.70;;
13408;SDS011;6775;49.574;11.170;2023-07-28T14:13:55;0.90;;;0.70;;
13408;SDS011;6775;49.574;11.170;2023-07-28T14:16:23;0.80;;;0.80;;
13408;SDS011;6775;49.574;11.170;2023-07-28T14:18:52;1.20;;;1.10;;
13408;SDS011;6775;49.574;11.170;2023-07-28T14:21:21;1.63;;;1.00;;
13408;SDS011;6775;49.574;11.170;2023-07-28T14:23:49;1.57;;;0.70;;
13408;SDS011;6775;49.574;11.170;2023-07-28T14:26:17;1.43;;;1.10;;
13408;SDS011;6775;49.574;11.170;2023-07-28T14:28:45;1.20;;;1.10;;
13408;SDS011;6775;49.574;11.170;2023-07-28T14:31:13;1.20;;;1.10;;
13408;SDS011;6775;49.574;11.170;2023-07-28T14:33:41;1.17;;;1.07;;
13408;SDS011;6775;49.574;11.170;2023-07-28T14:36:09;1.10;;;1.00;;
13408;SDS011;6775;49.574;11.170;2023-07-28T14:38:39;1.00;;;1.00;;
13408;SDS011;6775;49.574;11.170;2023-07-28T14:41:07;0.80;;;0.80;;
13408;SDS011;6775;49.574;11.170;2023-07-28T14:43:35;1.00;;;0.90;;
13408;SDS011;6775;49.574;11.170;2023-07-28T14:46:03;0.90;;;0.90;;
13408;SDS011;6775;49.574;11.170;2023-07-28T14:48:31;1.30;;;1.20;;
13408;SDS011;6775;49.574;11.170;2023-07-28T14:51:01;1.20;;;1.10;;
13408;SDS011;6775;49.574;11.170;2023-07-28T14:53:33;1.13;;;1.10;;
13408;SDS011;6775;49.574;11.170;2023-07-28T14:56:04;1.73;;;1.30;;
13408;SDS011;6775;49.574;11.170;2023-07-28T14:58:33;0.90;;;0.90;;
13408;SDS011;6775;49.574;11.170;2023-07-28T15:01:01;1.10;;;1.07;;